Time;durP1;ratioP1;P1;durP2;ratioP2;P2;SDS_P1;SDS_P2;PMS_P1;PMS_P2;Temp;Humidity;BMP_temperature;BMP_pressure;BME280_temperature;BME280_humidity;BME280_pressure;Samples;Min_cycle;Max_cycle;Signal;HPM_P1;HPM_P2
2022/09/25 00:00:20;;;;;;;26.55;17.08;;;10.90;99.90;;;;;;5012314;28;20203;-76
2022/09/25 00:02:45;;;;;;;16.60;12.43;;;10.80;99.90;;;;;;5012460;28;20253;-76
2022/09/25 00:05:11;;;;;;;16.73;11.98;;;10.80;99.90;;;;;;5013630;28;20215;-76
2022/09/25 00:07:36;;;;;;;13.25;9.77;;;10.70;99.90;;;;;;5012561;28;20199;-76
2022/09/25 00:10:03;;;;;;;11.48;7.25;;;10.60;99.90;;;;;;5013081;28;20182;-76
2022/09/25 00:12:28;;;;;;;9.05;8.15;;;10.60;99.90;;;;;;5012190;28;20187;-76
2022/09/25 00:14:54;;;;;;;13.35;9.23;;;10.60;99.90;;;;;;5012379;28;20183;-76
2022/09/25 00:17:20;;;;;;;23.35;14.07;;;10.50;99.90;;;;;;5013268;28;20218;-76
2022/09/25 00:19:48;;;;;;;19.85;12.50;;;10.40;99.90;;;;;;5013177;28;20282;-76
2022/09/25 00:22:15;;;;;;;23.35;12.85;;;10.40;99.90;;;;;;5011928;28;20187;-76
2022/09/25 00:25:26;;;;;;;21.27;13.05;;;10.40;99.90;;;;;;5011986;28;20179;-76
2022/09/25 00:27:52;;;;;;;23.02;13.55;;;10.40;99.90;;;;;;5011912;28;20692;-76
2022/09/25 00:30:17;;;;;;;37.90;19.33;;;10.40;99.90;;;;;;5011835;28;20227;-76
2022/09/25 00:32:43;;;;;;;42.30;21.52;;;10.40;99.90;;;;;;5012120;28;20183;-76
2022/09/25 00:35:09;;;;;;;28.85;16.23;;;10.30;99.90;;;;;;5012717;28;20204;-76
2022/09/25 00:37:39;;;;;;;21.55;11.77;;;10.20;99.90;;;;;;5012035;28;20199;-76
2022/09/25 00:40:11;;;;;;;11.52;8.38;;;10.20;99.90;;;;;;5013331;28;20191;-76
2022/09/25 00:42:37;;;;;;;11.80;7.55;;;10.20;99.90;;;;;;5013159;28;20169;-76
2022/09/25 00:45:18;;;;;;;9.63;7.53;;;10.10;99.90;;;;;;5012978;28;20179;-76
2022/09/25 00:48:03;;;;;;;11.07;8.20;;;10.20;99.90;;;;;;5011795;28;20206;-76
2022/09/25 00:50:55;;;;;;;9.77;7.68;;;10.20;99.90;;;;;;5011925;28;20209;-76
2022/09/25 00:53:29;;;;;;;7.97;7.15;;;10.20;99.90;;;;;;5012804;28;20542;-76
2022/09/25 00:55:56;;;;;;;7.78;6.90;;;10.30;99.90;;;;;;5011530;28;20233;-76
2022/09/25 00:58:36;;;;;;;7.50;6.72;;;10.30;99.90;;;;;;5011891;28;20242;-76
2022/09/25 01:01:02;;;;;;;7.63;6.80;;;10.30;99.90;;;;;;5012248;28;20623;-76
2022/09/25 01:03:45;;;;;;;7.97;7.13;;;10.40;99.90;;;;;;5011607;28;20179;-76
2022/09/25 01:06:12;;;;;;;6.70;6.20;;;10.30;99.90;;;;;;5011502;28;20241;-76
2022/09/25 01:08:43;;;;;;;8.40;6.05;;;10.30;99.90;;;;;;5012352;28;20718;-76
2022/09/25 01:11:09;;;;;;;12.15;6.22;;;10.40;99.90;;;;;;5012049;28;20171;-76
2022/09/25 01:13:35;;;;;;;9.18;6.63;;;10.30;99.90;;;;;;5011134;28;20205;-76
2022/09/25 01:16:26;;;;;;;7.93;7.13;;;10.30;99.90;;;;;;5011432;28;20184;-76
2022/09/25 01:19:21;;;;;;;11.52;6.80;;;10.30;99.90;;;;;;5011361;28;20195;-76
2022/09/25 01:22:22;;;;;;;7.95;6.72;;;10.30;99.90;;;;;;5011956;28;20172;-76
2022/09/25 01:25:07;;;;;;;6.55;5.95;;;10.40;99.90;;;;;;5010933;28;20711;-76
2022/09/25 01:28:09;;;;;;;10.18;7.03;;;10.50;99.90;;;;;;5010845;28;20209;-77
2022/09/25 01:31:30;;;;;;;7.03;6.32;;;10.50;99.90;;;;;;5012105;28;20183;-76
2022/09/25 01:34:06;;;;;;;6.80;6.18;;;10.60;99.90;;;;;;4955342;28;20699;-76
2022/09/25 01:36:49;;;;;;;6.88;5.82;;;10.70;99.90;;;;;;5003868;28;20191;-76
2022/09/25 01:39:17;;;;;;;9.18;6.00;;;10.80;99.90;;;;;;5012141;28;20195;-76
2022/09/25 01:41:50;;;;;;;10.55;6.30;;;10.90;99.90;;;;;;5012307;28;20178;-76
2022/09/25 01:44:27;;;;;;;7.88;7.07;;;10.90;99.90;;;;;;5010656;28;20180;-76
2022/09/25 01:50:22;;;;;;;7.53;6.50;;;10.90;99.90;;;;;;5012119;28;20202;-75
2022/09/25 01:52:51;;;;;;;6.82;5.80;;;10.90;99.90;;;;;;5010548;28;20191;-75
2022/09/25 01:55:35;;;;;;;6.70;6.10;;;10.90;99.90;;;;;;5011370;28;20176;-75
2022/09/25 01:58:42;;;;;;;8.45;6.47;;;10.90;99.90;;;;;;5011957;28;20198;-75
2022/09/25 02:01:24;;;;;;;9.65;6.22;;;11.00;99.90;;;;;;5055698;28;20193;-76
2022/09/25 02:03:59;;;;;;;9.63;6.07;;;11.00;99.90;;;;;;5015003;28;20627;-76
2022/09/25 02:06:26;;;;;;;8.82;6.43;;;11.00;99.90;;;;;;5011537;28;20193;-76
2022/09/25 02:09:07;;;;;;;6.78;6.00;;;11.10;99.90;;;;;;5010306;28;20221;-76
2022/09/25 02:11:39;;;;;;;7.00;6.22;;;11.00;99.90;;;;;;5010218;28;20202;-76
2022/09/25 02:14:18;;;;;;;7.28;6.57;;;11.10;99.90;;;;;;5010325;28;20192;-76
2022/09/25 02:16:49;;;;;;;6.53;5.88;;;11.00;99.90;;;;;;5010371;28;20210;-76
2022/09/25 02:22:18;;;;;;;10.70;6.65;;;11.10;99.90;;;;;;5011710;28;20213;-76
2022/09/25 02:31:54;;;;;;;7.95;6.90;;;11.10;99.90;;;;;;5011588;28;20177;-76
2022/09/25 02:34:21;;;;;;;7.40;6.70;;;11.10;99.90;;;;;;5010024;28;20183;-76
2022/09/25 02:36:47;;;;;;;9.15;7.10;;;11.00;99.90;;;;;;5010595;28;20242;-76
2022/09/25 02:39:15;;;;;;;8.23;7.05;;;11.00;99.90;;;;;;5010996;28;20235;-76
2022/09/25 02:41:41;;;;;;;11.75;7.40;;;10.90;99.90;;;;;;5011356;28;20254;-76
2022/09/25 02:44:34;;;;;;;9.68;7.00;;;10.90;99.90;;;;;;5010668;28;20598;-76
2022/09/25 02:47:41;;;;;;;9.98;7.35;;;10.90;99.90;;;;;;5010935;28;20561;-76
2022/09/25 02:50:25;;;;;;;7.80;7.10;;;11.00;99.90;;;;;;5010994;28;20175;-76
2022/09/25 02:53:14;;;;;;;7.82;7.20;;;11.00;99.90;;;;;;5010258;28;20191;-76
2022/09/25 02:55:47;;;;;;;8.20;7.40;;;11.00;99.90;;;;;;5010946;28;20203;-76
2022/09/25 02:58:27;;;;;;;7.97;7.22;;;11.00;99.90;;;;;;5010094;28;20282;-76
2022/09/25 03:00:56;;;;;;;10.23;7.53;;;11.00;99.90;;;;;;5010383;28;20214;-76
2022/09/25 03:03:24;;;;;;;8.40;7.68;;;11.00;99.90;;;;;;5009624;28;20171;-76
2022/09/25 03:05:51;;;;;;;9.95;7.90;;;11.00;99.90;;;;;;5009537;28;20176;-76
2022/09/25 03:08:36;;;;;;;9.93;7.97;;;11.00;99.90;;;;;;5010863;28;20270;-76
2022/09/25 03:11:05;;;;;;;9.02;8.05;;;11.00;99.90;;;;;;5009641;28;20608;-76
2022/09/25 03:13:32;;;;;;;9.10;8.10;;;11.00;99.90;;;;;;5010905;28;20178;-76
2022/09/25 03:16:22;;;;;;;8.85;8.02;;;11.00;99.90;;;;;;5010670;28;20168;-76
2022/09/25 03:18:48;;;;;;;8.77;7.88;;;11.00;99.90;;;;;;5009304;28;20176;-76
2022/09/25 03:21:13;;;;;;;8.88;8.00;;;11.00;99.90;;;;;;5011091;28;20553;-76
2022/09/25 03:23:39;;;;;;;9.10;8.05;;;11.00;99.90;;;;;;5014397;28;20178;-76
2022/09/25 03:26:06;;;;;;;9.00;8.20;;;11.00;99.90;;;;;;5013730;28;20176;-76
2022/09/25 03:28:32;;;;;;;8.50;7.70;;;11.00;99.90;;;;;;5012900;28;20199;-76
2022/09/25 03:31:04;;;;;;;10.25;7.70;;;11.00;99.90;;;;;;5013973;28;20552;-76
2022/09/25 03:33:34;;;;;;;9.18;8.15;;;11.00;99.90;;;;;;5012727;28;20192;-76
2022/09/25 03:36:26;;;;;;;10.18;7.95;;;11.00;99.90;;;;;;5013580;28;20213;-76
2022/09/25 03:38:56;;;;;;;8.68;7.45;;;11.00;99.90;;;;;;5012536;28;20168;-75
2022/09/25 03:41:22;;;;;;;8.77;7.88;;;11.00;99.90;;;;;;5013756;28;20650;-75
2022/09/25 03:43:50;;;;;;;8.88;7.68;;;11.10;99.90;;;;;;5014488;28;20195;-75
2022/09/25 03:46:18;;;;;;;8.60;7.70;;;11.10;99.90;;;;;;5012422;28;20179;-75
2022/09/25 03:48:45;;;;;;;12.93;8.15;;;11.10;99.90;;;;;;5012756;28;20219;-75
2022/09/25 03:51:11;;;;;;;8.63;7.78;;;11.10;99.90;;;;;;5012377;28;20199;-75
2022/09/25 03:53:38;;;;;;;12.88;9.18;;;11.20;99.90;;;;;;5013913;28;20195;-75
2022/09/25 03:56:06;;;;;;;12.25;9.75;;;11.20;99.90;;;;;;5012552;28;20226;-75
2022/09/25 03:58:33;;;;;;;12.10;9.43;;;11.20;99.90;;;;;;5012391;28;20223;-75
2022/09/25 04:01:00;;;;;;;11.98;9.88;;;11.30;99.90;;;;;;5013477;28;20207;-75
2022/09/25 04:03:29;;;;;;;10.60;9.63;;;11.30;99.90;;;;;;5012268;28;20557;-75
2022/09/25 04:05:56;;;;;;;10.60;9.52;;;11.20;99.90;;;;;;5012433;28;20668;-75
2022/09/25 04:08:24;;;;;;;22.50;20.20;;;11.20;99.90;;;;;;5012523;28;20192;-75
2022/09/25 04:10:50;;;;;;;12.35;10.48;;;11.20;99.90;;;;;;5012199;28;20182;-75
2022/09/25 04:13:16;;;;;;;11.07;10.07;;;11.30;99.90;;;;;;5012140;28;20179;-75
2022/09/25 04:15:42;;;;;;;13.55;10.43;;;11.30;99.90;;;;;;5012492;28;20180;-75
2022/09/25 04:18:08;;;;;;;10.95;9.85;;;11.30;99.90;;;;;;5012540;28;20260;-75
2022/09/25 04:20:34;;;;;;;10.80;8.10;;;11.20;99.90;;;;;;5012237;28;20663;-75
2022/09/25 04:23:00;;;;;;;11.15;8.38;;;11.20;99.90;;;;;;5012597;28;20252;-75
2022/09/25 04:25:26;;;;;;;9.40;8.40;;;11.20;99.90;;;;;;5012817;28;20586;-75
2022/09/25 04:27:55;;;;;;;8.55;7.82;;;11.30;99.90;;;;;;5011851;28;20199;-75
2022/09/25 04:30:26;;;;;;;8.95;8.02;;;11.20;99.90;;;;;;5011847;28;20188;-75
2022/09/25 04:35:36;;;;;;;9.93;9.00;;;11.20;99.90;;;;;;5013155;28;20256;-75
2022/09/25 04:38:02;;;;;;;11.30;9.02;;;11.20;99.90;;;;;;5011905;28;20690;-75
2022/09/25 04:40:29;;;;;;;10.00;9.07;;;11.10;99.90;;;;;;5011908;28;20231;-75
2022/09/25 04:42:59;;;;;;;12.32;9.38;;;11.20;99.90;;;;;;5012395;28;20256;-75
2022/09/25 04:45:25;;;;;;;12.02;8.90;;;11.20;99.90;;;;;;5012762;28;20221;-75
2022/09/25 04:47:52;;;;;;;10.65;9.50;;;11.20;99.90;;;;;;5011671;28;20200;-75
2022/09/25 04:50:19;;;;;;;9.02;8.23;;;11.30;99.90;;;;;;5013077;28;20267;-75
2022/09/25 04:52:44;;;;;;;9.90;8.90;;;11.30;99.90;;;;;;5011447;28;20760;-75
2022/09/25 04:55:10;;;;;;;10.95;9.68;;;11.30;99.90;;;;;;5011776;28;20211;-75
2022/09/25 04:57:36;;;;;;;9.98;8.60;;;11.20;99.90;;;;;;5011870;28;20231;-75
2022/09/25 05:00:02;;;;;;;12.50;9.30;;;11.30;99.90;;;;;;5012148;28;20199;-75
2022/09/25 05:02:28;;;;;;;9.55;8.63;;;11.30;99.90;;;;;;5011317;28;20184;-75
2022/09/25 05:04:53;;;;;;;14.82;10.13;;;11.30;99.90;;;;;;5012108;28;20211;-75
2022/09/25 05:07:19;;;;;;;9.95;8.93;;;11.30;99.90;;;;;;5012633;28;20227;-75
2022/09/25 05:13:09;;;;;;;12.45;9.68;;;11.30;99.90;;;;;;5012652;28;20159;-75
2022/09/25 05:15:35;;;;;;;10.32;9.45;;;11.30;99.90;;;;;;5011459;28;20236;-75
2022/09/25 05:18:26;;;;;;;10.88;9.77;;;11.40;99.90;;;;;;5012306;28;20191;-75
2022/09/25 05:20:53;;;;;;;13.10;9.57;;;11.40;99.90;;;;;;5008430;28;20211;-75
2022/09/25 05:23:19;;;;;;;11.52;9.48;;;11.40;99.90;;;;;;5011040;28;20187;-75
2022/09/25 05:25:54;;;;;;;11.63;9.02;;;11.40;99.90;;;;;;5012487;28;20258;-75
2022/09/25 05:28:19;;;;;;;10.23;9.05;;;11.50;99.90;;;;;;5010849;28;20191;-75
2022/09/25 05:30:45;;;;;;;10.75;9.77;;;11.50;99.90;;;;;;5011767;28;20191;-75
2022/09/25 05:33:10;;;;;;;12.65;10.23;;;11.50;99.90;;;;;;5010971;28;20254;-75
2022/09/25 05:35:36;;;;;;;11.35;10.13;;;11.60;99.90;;;;;;5010783;28;20184;-75
2022/09/25 05:38:02;;;;;;;11.65;9.45;;;11.60;99.90;;;;;;5010776;28;20201;-76
2022/09/25 05:40:27;;;;;;;9.35;8.55;;;11.60;99.90;;;;;;5011135;28;20229;-76
2022/09/25 05:42:54;;;;;;;10.77;8.32;;;11.70;99.90;;;;;;5010849;28;20176;-76
2022/09/25 05:45:22;;;;;;;9.50;8.27;;;11.80;99.90;;;;;;5011831;28;20164;-76
2022/09/25 05:47:47;;;;;;;9.48;8.55;;;11.80;99.90;;;;;;5011081;28;20207;-76
2022/09/25 05:50:15;;;;;;;10.00;8.05;;;11.80;99.90;;;;;;5010668;28;20172;-76
2022/09/25 05:52:41;;;;;;;8.70;7.88;;;11.80;99.90;;;;;;5010739;28;20200;-76
2022/09/25 05:55:09;;;;;;;8.95;8.23;;;11.80;99.90;;;;;;5010861;28;20209;-76
2022/09/25 05:57:35;;;;;;;9.00;8.20;;;11.80;99.90;;;;;;5011672;28;20275;-76
2022/09/25 06:00:04;;;;;;;8.52;7.78;;;11.80;99.90;;;;;;5010706;28;20199;-76
2022/09/25 06:02:29;;;;;;;8.93;8.13;;;11.80;99.90;;;;;;5010841;28;20180;-76
2022/09/25 06:04:55;;;;;;;10.15;9.15;;;11.80;99.90;;;;;;5010394;28;20232;-76
2022/09/25 06:07:20;;;;;;;10.25;9.23;;;11.80;99.90;;;;;;5010301;28;20221;-76
2022/09/25 06:09:59;;;;;;;10.70;8.38;;;11.80;99.90;;;;;;5011438;28;20203;-76
2022/09/25 06:12:27;;;;;;;9.07;8.13;;;11.90;99.90;;;;;;5010427;28;20200;-76
2022/09/25 06:14:53;;;;;;;9.07;8.07;;;11.90;99.90;;;;;;5010841;28;20187;-75
2022/09/25 06:17:21;;;;;;;9.30;8.40;;;11.90;99.90;;;;;;5010450;28;20206;-75
2022/09/25 06:19:46;;;;;;;9.43;8.52;;;11.90;99.90;;;;;;5011562;28;20229;-75
2022/09/25 06:22:12;;;;;;;9.57;8.68;;;11.90;99.90;;;;;;5011917;28;20171;-75
2022/09/25 06:24:38;;;;;;;8.50;7.72;;;12.00;99.90;;;;;;5011263;28;20179;-75
2022/09/25 06:27:05;;;;;;;9.32;8.38;;;12.00;99.90;;;;;;5010100;28;20199;-75
2022/09/25 06:29:31;;;;;;;8.70;8.00;;;12.10;99.90;;;;;;5010831;28;20187;-75
2022/09/25 06:31:56;;;;;;;10.63;9.52;;;12.10;99.90;;;;;;5011692;28;20188;-75
2022/09/25 06:34:22;;;;;;;9.52;8.50;;;12.10;99.90;;;;;;5011586;28;20175;-75
2022/09/25 06:37:07;;;;;;;9.65;8.65;;;12.20;99.90;;;;;;5010026;28;20199;-75
2022/09/25 06:39:33;;;;;;;10.35;8.50;;;12.20;99.90;;;;;;5010293;28;20231;-75
2022/09/25 06:41:58;;;;;;;10.80;9.82;;;12.20;99.90;;;;;;5010470;28;20180;-75
2022/09/25 06:44:24;;;;;;;11.13;9.38;;;12.30;99.90;;;;;;5010526;28;20179;-75
2022/09/25 06:46:53;;;;;;;10.60;9.60;;;12.40;99.90;;;;;;5010243;28;20287;-75
2022/09/25 06:49:19;;;;;;;10.85;9.77;;;12.40;99.90;;;;;;5010223;28;20179;-75
2022/09/25 06:51:45;;;;;;;13.30;10.13;;;12.40;99.90;;;;;;5011095;28;20282;-75
2022/09/25 06:54:11;;;;;;;11.93;10.70;;;12.40;99.90;;;;;;5010100;28;20195;-75
2022/09/25 06:56:36;;;;;;;12.25;11.00;;;12.50;99.90;;;;;;5009599;28;20199;-75
2022/09/25 06:59:02;;;;;;;11.88;10.77;;;12.50;99.90;;;;;;5010698;28;20294;-75
2022/09/25 07:01:28;;;;;;;13.60;12.20;;;12.50;99.90;;;;;;5010101;28;20270;-75
2022/09/25 07:03:54;;;;;;;22.45;18.52;;;12.50;99.90;;;;;;5009853;28;20274;-75
2022/09/25 07:06:22;;;;;;;24.27;19.83;;;12.50;99.90;;;;;;5011219;28;20195;-75
2022/09/25 07:08:49;;;;;;;77.28;59.17;;;12.50;99.90;;;;;;5010739;28;20529;-76
2022/09/25 07:11:26;;;;;;;90.15;74.85;;;12.40;99.90;;;;;;5009682;28;20228;-76
2022/09/25 07:13:53;;;;;;;33.15;29.58;;;12.40;99.90;;;;;;5010438;28;20168;-77
2022/09/25 07:16:21;;;;;;;21.02;18.92;;;12.30;99.90;;;;;;5009347;28;20201;-76
2022/09/25 07:18:47;;;;;;;17.80;16.30;;;12.20;99.90;;;;;;5009660;28;20175;-76
2022/09/25 07:21:17;;;;;;;15.57;14.20;;;12.10;99.90;;;;;;5009920;28;20179;-76
2022/09/25 07:23:43;;;;;;;13.18;12.13;;;12.00;99.90;;;;;;5009511;28;20171;-76
2022/09/25 07:26:14;;;;;;;12.60;11.40;;;12.00;99.90;;;;;;5009631;28;20184;-76
2022/09/25 07:28:41;;;;;;;11.55;10.50;;;11.90;99.90;;;;;;5010988;28;20258;-75
2022/09/25 07:31:11;;;;;;;10.88;9.77;;;11.90;99.90;;;;;;5009468;28;20183;-76
2022/09/25 07:33:37;;;;;;;12.93;11.35;;;11.90;99.90;;;;;;5010064;28;20187;-76
2022/09/25 07:36:03;;;;;;;12.18;10.98;;;11.90;99.90;;;;;;5009457;28;20175;-76
2022/09/25 07:38:28;;;;;;;12.80;11.32;;;11.90;99.90;;;;;;5009268;28;20339;-76
2022/09/25 07:40:54;;;;;;;12.93;11.63;;;11.90;99.90;;;;;;5010002;28;20207;-76
2022/09/25 07:46:42;;;;;;;14.88;13.55;;;12.00;99.90;;;;;;5010826;28;20196;-75
2022/09/25 07:49:07;;;;;;;14.63;13.23;;;12.10;99.90;;;;;;5010724;28;20167;-75
2022/09/25 07:51:33;;;;;;;14.60;13.23;;;12.10;99.90;;;;;;5010228;28;20290;-76
2022/09/25 07:53:59;;;;;;;14.68;13.35;;;12.10;99.90;;;;;;5009034;28;20186;-76
2022/09/25 07:56:29;;;;;;;15.52;13.95;;;12.10;99.90;;;;;;5008909;28;20188;-76
2022/09/25 07:59:04;;;;;;;17.08;13.82;;;12.00;99.90;;;;;;5009902;28;20183;-76
2022/09/25 08:04:53;;;;;;;14.85;13.27;;;12.00;99.90;;;;;;5010379;28;20204;-76
2022/09/25 08:07:40;;;;;;;16.23;14.73;;;12.10;99.90;;;;;;5009295;28;20200;-76
2022/09/25 08:10:14;;;;;;;15.38;13.98;;;12.10;99.90;;;;;;5013344;28;20202;-76
2022/09/25 08:12:54;;;;;;;16.10;14.50;;;12.10;99.90;;;;;;5013429;28;20191;-75
2022/09/25 08:15:27;;;;;;;16.55;14.95;;;12.00;99.90;;;;;;5012129;28;20702;-75
2022/09/25 08:17:53;;;;;;;23.75;21.55;;;12.10;99.90;;;;;;5012054;28;20212;-76
2022/09/25 08:20:56;;;;;;;19.20;16.77;;;12.10;99.90;;;;;;5012620;28;20227;-76
2022/09/25 08:23:22;;;;;;;18.58;16.65;;;12.10;99.90;;;;;;5013029;28;20167;-76
2022/09/25 08:25:56;;;;;;;19.65;17.67;;;12.20;99.90;;;;;;5012354;28;20176;-76
2022/09/25 08:28:22;;;;;;;19.45;15.77;;;12.10;99.90;;;;;;5011948;28;20214;-76
2022/09/25 08:30:48;;;;;;;19.85;17.95;;;12.10;99.90;;;;;;5012442;28;20270;-76
2022/09/25 08:33:17;;;;;;;21.48;19.38;;;12.10;99.90;;;;;;5011980;28;20205;-76
2022/09/25 08:36:18;;;;;;;20.10;18.15;;;12.10;99.90;;;;;;5011911;28;20168;-75
2022/09/25 08:38:44;;;;;;;18.48;16.58;;;12.10;99.90;;;;;;5012087;28;20221;-75
2022/09/25 08:41:27;;;;;;;19.65;17.55;;;12.10;99.90;;;;;;5011932;28;20192;-76
2022/09/25 08:44:03;;;;;;;19.83;17.85;;;12.10;99.90;;;;;;5013138;28;20164;-76
2022/09/25 08:49:28;;;;;;;22.50;20.33;;;12.00;99.90;;;;;;5012808;28;20171;-75
2022/09/25 08:51:58;;;;;;;22.58;20.25;;;12.10;99.90;;;;;;5011900;28;20199;-76
2022/09/25 08:54:26;;;;;;;23.83;21.33;;;12.00;99.90;;;;;;5011609;28;20178;-76
2022/09/25 08:57:36;;;;;;;22.27;20.05;;;12.10;99.90;;;;;;5012980;28;20613;-76
2022/09/25 09:00:22;;;;;;;25.63;20.67;;;12.10;99.90;;;;;;5012476;28;20233;-76
2022/09/25 09:02:56;;;;;;;22.00;19.73;;;12.10;99.90;;;;;;5012700;28;20160;-76
2022/09/25 09:05:29;;;;;;;22.95;20.70;;;12.10;99.90;;;;;;5012801;28;20168;-77
2022/09/25 09:08:01;;;;;;;23.38;20.38;;;12.10;99.90;;;;;;5011545;28;20327;-77
2022/09/25 09:10:34;;;;;;;22.90;20.58;;;12.20;99.90;;;;;;5012530;28;20638;-85
2022/09/25 09:13:23;;;;;;;22.85;20.60;;;12.20;99.90;;;;;;5012115;28;20176;-77
2022/09/25 09:16:30;;;;;;;23.55;21.15;;;12.20;99.90;;;;;;5011435;28;20194;-76
2022/09/25 09:18:59;;;;;;;23.60;21.13;;;12.40;99.90;;;;;;5011681;28;20183;-76
2022/09/25 09:21:35;;;;;;;22.10;19.77;;;12.70;99.90;;;;;;5011528;28;20244;-82
2022/09/25 09:24:09;;;;;;;21.85;19.30;;;13.00;99.90;;;;;;5012273;28;20164;-76
2022/09/25 09:27:12;;;;;;;20.45;18.52;;;13.50;99.90;;;;;;5011274;28;20723;-76
2022/09/25 09:30:39;;;;;;;19.15;17.33;;;13.80;99.90;;;;;;5011094;28;20176;-76
2022/09/25 09:33:37;;;;;;;18.25;15.68;;;14.10;99.90;;;;;;5052906;28;20193;-76
2022/09/25 09:36:45;;;;;;;17.95;16.15;;;14.30;99.90;;;;;;4968719;28;20265;-76
2022/09/25 09:39:37;;;;;;;17.08;15.38;;;14.50;99.90;;;;;;5012022;28;20690;-75
2022/09/25 09:42:15;;;;;;;19.02;17.13;;;14.70;99.90;;;;;;5011881;28;20164;-76
2022/09/25 09:45:23;;;;;;;17.27;15.55;;;14.70;99.90;;;;;;5014561;28;20163;-76
2022/09/25 09:48:32;;;;;;;16.88;15.35;;;14.90;99.90;;;;;;5010684;28;20203;-76
2022/09/25 09:51:12;;;;;;;16.90;15.02;;;15.10;99.90;;;;;;5010472;28;20167;-76
2022/09/25 09:53:58;;;;;;;17.35;15.65;;;15.10;99.90;;;;;;5009129;28;20186;-76
2022/09/25 09:56:34;;;;;;;18.33;16.63;;;15.00;99.90;;;;;;5018883;28;20229;-79
2022/09/25 09:59:16;;;;;;;17.13;15.63;;;15.00;99.90;;;;;;5012015;28;20630;-78
2022/09/25 10:01:44;;;;;;;18.15;16.25;;;15.10;99.90;;;;;;5011086;28;20175;-77
2022/09/25 10:04:35;;;;;;;17.85;16.15;;;15.00;99.90;;;;;;5011597;28;20267;-78
2022/09/25 10:07:12;;;;;;;19.73;17.73;;;15.10;99.90;;;;;;5015704;28;20240;-77
2022/09/25 10:09:38;;;;;;;18.25;16.55;;;15.00;99.90;;;;;;5011550;28;20168;-77
2022/09/25 10:12:14;;;;;;;18.67;16.77;;;15.10;99.90;;;;;;5010557;28;20662;-77
2022/09/25 10:14:45;;;;;;;18.60;16.70;;;15.10;99.90;;;;;;5010419;28;20167;-77
2022/09/25 10:17:11;;;;;;;17.52;15.82;;;15.10;99.90;;;;;;5010970;28;20307;-77
2022/09/25 10:19:47;;;;;;;16.63;15.02;;;15.00;99.90;;;;;;5011217;28;20196;-77
2022/09/25 10:22:16;;;;;;;16.55;14.98;;;15.00;99.90;;;;;;5010635;28;20194;-77
2022/09/25 10:24:54;;;;;;;17.67;16.00;;;14.90;99.90;;;;;;5011094;28;20179;-77
2022/09/25 10:27:37;;;;;;;18.20;16.50;;;14.70;99.90;;;;;;5011335;28;20203;-78
2022/09/25 10:30:06;;;;;;;18.23;16.42;;;14.70;99.90;;;;;;5012419;28;20172;-78
2022/09/25 10:32:45;;;;;;;17.33;15.70;;;14.60;99.90;;;;;;5010587;28;20191;-77
2022/09/25 10:35:53;;;;;;;17.30;15.70;;;14.50;99.90;;;;;;5010636;28;20263;-77
2022/09/25 10:39:03;;;;;;;18.52;16.67;;;14.50;99.90;;;;;;5011160;28;20195;-77
2022/09/25 10:41:39;;;;;;;20.30;18.20;;;14.40;99.90;;;;;;5011346;28;20216;-77
2022/09/25 10:44:20;;;;;;;19.00;16.45;;;14.50;99.90;;;;;;5010065;28;20171;-77
2022/09/25 10:52:48;;;;;;;18.10;15.73;;;15.10;99.90;;;;;;5010989;28;20298;-77
2022/09/25 10:55:30;;;;;;;16.55;14.93;;;15.40;99.90;;;;;;5010094;28;20179;-77
2022/09/25 10:58:18;;;;;;;16.60;15.00;;;15.80;99.90;;;;;;5009635;28;20196;-77
2022/09/25 11:00:53;;;;;;;16.08;14.57;;;16.20;99.90;;;;;;5010787;28;20199;-77
2022/09/25 11:03:34;;;;;;;16.30;14.70;;;16.50;99.90;;;;;;5010542;28;20159;-76
2022/09/25 11:06:08;;;;;;;14.55;13.25;;;16.90;99.90;;;;;;5010961;28;20148;-76
2022/09/25 11:08:38;;;;;;;15.48;13.98;;;17.10;99.90;;;;;;5009598;28;20265;-76
2022/09/25 11:11:07;;;;;;;15.27;13.77;;;17.50;99.90;;;;;;5009539;28;20211;-76
2022/09/25 11:13:45;;;;;;;14.40;13.10;;;17.60;99.90;;;;;;5009507;28;20654;-76
2022/09/25 11:16:11;;;;;;;14.68;13.38;;;17.90;99.90;;;;;;5010668;28;20246;-77
2022/09/25 11:18:48;;;;;;;15.45;13.95;;;18.00;99.90;;;;;;5009684;28;20204;-77
2022/09/25 11:21:39;;;;;;;14.85;13.50;;;18.30;99.90;;;;;;5010218;28;20195;-78
2022/09/25 11:24:41;;;;;;;14.55;13.15;;;18.40;99.90;;;;;;5011475;28;20224;-77
2022/09/25 11:27:26;;;;;;;15.45;12.35;;;18.30;99.90;;;;;;5009530;28;20670;-76
2022/09/25 11:30:11;;;;;;;14.40;13.02;;;17.90;99.90;;;;;;5009368;28;20175;-76
2022/09/25 11:32:47;;;;;;;14.73;13.32;;;17.90;99.90;;;;;;5009576;28;20175;-77
2022/09/25 11:35:19;;;;;;;16.40;14.85;;;17.90;99.90;;;;;;5010276;28;20163;-77
2022/09/25 11:41:21;;;;;;;15.43;14.13;;;18.00;99.90;;;;;;5010450;28;20199;-76
2022/09/25 11:47:20;;;;;;;16.25;14.60;;;18.10;99.90;;;;;;5013957;28;20236;-76
2022/09/25 11:53:39;;;;;;;16.25;14.73;;;17.90;99.90;;;;;;5014021;28;20249;-77
2022/09/25 11:56:37;;;;;;;14.43;12.95;;;17.90;99.90;;;;;;5050287;28;20192;-77
2022/09/25 11:59:51;;;;;;;14.45;13.07;;;17.80;99.90;;;;;;5013738;28;20251;-77
2022/09/25 12:02:24;;;;;;;15.95;14.45;;;17.60;99.90;;;;;;5012664;28;20178;-77
2022/09/25 12:05:14;;;;;;;14.35;12.98;;;17.50;99.90;;;;;;5012365;28;20240;-77
2022/09/25 12:07:47;;;;;;;14.02;12.73;;;17.40;99.90;;;;;;5013039;28;20221;-77
2022/09/25 12:10:25;;;;;;;14.18;12.88;;;17.40;99.90;;;;;;5013504;28;20192;-77
2022/09/25 12:13:39;;;;;;;13.45;12.05;;;17.30;99.90;;;;;;5013048;28;20172;-77
2022/09/25 12:16:11;;;;;;;13.18;11.98;;;17.40;99.90;;;;;;5074214;28;20182;-77
2022/09/25 12:19:09;;;;;;;14.20;12.85;;;17.30;99.90;;;;;;5019290;28;20242;-77
2022/09/25 12:22:07;;;;;;;15.10;13.50;;;17.00;99.90;;;;;;5012673;28;20549;-77
2022/09/25 12:24:44;;;;;;;14.75;13.40;;;16.80;99.90;;;;;;5012290;28;20245;-77
2022/09/25 12:27:35;;;;;;;16.00;14.52;;;16.30;99.90;;;;;;5013304;28;20328;-76
2022/09/25 12:30:10;;;;;;;16.13;14.48;;;16.20;99.90;;;;;;5012796;28;20168;-77
2022/09/25 12:33:09;;;;;;;15.55;14.15;;;15.90;99.90;;;;;;5012728;28;20627;-77
2022/09/25 12:35:48;;;;;;;16.50;14.95;;;15.80;99.90;;;;;;5012744;28;20169;-77
2022/09/25 12:38:16;;;;;;;15.77;14.18;;;15.80;99.90;;;;;;5012833;28;20203;-77
2022/09/25 12:44:31;;;;;;;16.75;15.15;;;15.70;99.90;;;;;;5013300;28;20638;-77
2022/09/25 12:47:08;;;;;;;18.13;16.33;;;15.70;99.90;;;;;;5012829;28;20191;-77
2022/09/25 12:50:00;;;;;;;17.70;16.02;;;15.70;99.90;;;;;;5012913;28;20175;-77
2022/09/25 12:52:36;;;;;;;19.33;17.30;;;15.80;99.90;;;;;;5011953;28;20336;-76
2022/09/25 12:55:02;;;;;;;18.30;16.48;;;15.90;99.90;;;;;;5010954;28;20168;-76
2022/09/25 12:57:37;;;;;;;18.15;16.42;;;16.00;99.90;;;;;;5011690;28;20638;-77
2022/09/25 13:00:20;;;;;;;18.58;16.70;;;16.10;99.90;;;;;;5012789;28;20654;-77
2022/09/25 13:03:31;;;;;;;17.92;16.25;;;16.10;99.90;;;;;;5012272;28;20172;-76
2022/09/25 13:06:13;;;;;;;17.25;15.68;;;16.10;99.90;;;;;;5011376;28;20164;-76
2022/09/25 13:08:54;;;;;;;17.88;16.17;;;16.10;99.90;;;;;;5011662;28;20200;-76
2022/09/25 13:11:57;;;;;;;16.88;15.10;;;16.10;99.90;;;;;;5011318;28;20172;-76
2022/09/25 13:14:35;;;;;;;19.83;17.90;;;16.00;99.90;;;;;;5012183;28;20274;-77
2022/09/25 13:17:01;;;;;;;30.27;27.27;;;16.00;99.90;;;;;;5012324;28;20201;-77
2022/09/25 13:19:34;;;;;;;33.90;30.70;;;15.90;99.90;;;;;;5011150;28;20256;-77
2022/09/25 13:22:12;;;;;;;20.15;18.10;;;15.70;99.90;;;;;;5013204;28;20164;-77
2022/09/25 13:25:00;;;;;;;20.15;18.35;;;15.70;99.90;;;;;;5011089;28;20164;-77
2022/09/25 13:27:41;;;;;;;20.05;15.70;;;15.50;99.90;;;;;;5010917;28;20199;-77
2022/09/25 13:30:20;;;;;;;16.45;14.95;;;15.50;99.90;;;;;;5011513;28;20172;-77
2022/09/25 13:32:51;;;;;;;16.92;14.95;;;15.40;99.90;;;;;;5012976;28;20195;-77
2022/09/25 13:35:22;;;;;;;17.00;15.30;;;15.40;99.90;;;;;;5010834;28;20214;-77
2022/09/25 13:38:12;;;;;;;16.45;14.68;;;15.30;99.90;;;;;;5011340;28;20210;-77
2022/09/25 13:40:44;;;;;;;16.85;15.13;;;15.30;99.90;;;;;;5011963;28;20219;-77
2022/09/25 13:43:25;;;;;;;16.45;14.95;;;15.20;99.90;;;;;;5010801;28;20168;-77
2022/09/25 13:49:32;;;;;;;16.60;14.90;;;15.00;99.90;;;;;;5012540;28;20221;-77
2022/09/25 13:51:59;;;;;;;16.42;14.93;;;15.00;99.90;;;;;;5010833;28;20225;-77
2022/09/25 13:54:35;;;;;;;16.98;15.50;;;15.00;99.90;;;;;;5011456;28;20232;-77
2022/09/25 13:57:06;;;;;;;19.73;17.67;;;15.00;99.90;;;;;;5011300;28;20207;-77
2022/09/25 13:59:36;;;;;;;18.92;17.13;;;14.90;99.90;;;;;;5010581;28;20240;-77
2022/09/25 14:05:26;;;;;;;18.50;16.73;;;14.90;99.90;;;;;;5011686;28;20641;-77
2022/09/25 14:07:58;;;;;;;19.80;17.98;;;14.90;99.90;;;;;;5011152;28;20196;-77